Mill Spring, Missouri
Current Conditions -  °F | °C
As of 2:53 PM on Monday 24 Nov 2014 (Local Time) from KPOF Reporting Station
Few Clouds Few Clouds  
Wind Chill: 54°   Ceiling: Unl
Heat Index: 54°   Visibility: 10mi
Dew Point: 26°   Wind: 18mph
Humidity: 34%   Direction: 260°W
Pressure: 29.81"   Gusts: 24mph
Location:  37.06°N, 90.68°W
Report Text: KPOF 242053Z AUTO 26016G21KT 10SM FEW060 12/M03 A2981 RMK AO2 SLP094 T01221033 53010
Loading
Personal Weather Stations






























Interactive Weather Map New forecast layout! Learn more

10-Day Weather Forecast

Advertisements
Track Severe Weather on mobile